createdAt,value
2018-09-24T00:01:08.869Z,10.53
2018-09-24T00:03:37.460Z,10.43
2018-09-24T00:06:06.146Z,8.67
2018-09-24T00:08:34.730Z,12.27
2018-09-24T00:11:03.277Z,9.97
2018-09-24T00:13:31.867Z,10.87
2018-09-24T00:16:00.469Z,11.03
2018-09-24T00:18:29.058Z,10.37
2018-09-24T00:20:57.674Z,11.67
2018-09-24T00:23:26.297Z,12.20
2018-09-24T00:25:54.881Z,13.00
2018-09-24T00:28:23.582Z,11.90
2018-09-24T00:30:52.174Z,11.67
2018-09-24T00:33:20.825Z,12.90
2018-09-24T00:35:49.430Z,10.50
2018-09-24T00:38:18.037Z,10.73
2018-09-24T00:40:46.650Z,10.20
2018-09-24T00:43:16.212Z,11.80
2018-09-24T00:45:44.816Z,10.50
2018-09-24T00:48:14.162Z,12.13
2018-09-24T00:50:42.710Z,12.07
2018-09-24T00:53:11.331Z,11.87
2018-09-24T00:55:39.915Z,12.70
2018-09-24T00:58:08.502Z,11.47
2018-09-24T01:00:37.101Z,11.27
2018-09-24T01:03:05.786Z,11.23
2018-09-24T01:05:34.349Z,10.27
2018-09-24T01:08:03.014Z,13.23
2018-09-24T01:10:31.587Z,10.97
2018-09-24T01:13:00.178Z,12.13
2018-09-24T01:15:28.742Z,11.47
2018-09-24T01:17:57.341Z,11.30
2018-09-24T01:20:25.954Z,12.37
2018-09-24T01:22:54.625Z,12.50
2018-09-24T01:25:23.185Z,14.20
2018-09-24T01:27:51.804Z,10.77
2018-09-24T01:30:20.402Z,11.80
2018-09-24T01:32:48.997Z,10.83
2018-09-24T01:35:17.568Z,11.87
2018-09-24T01:37:46.154Z,13.27
2018-09-24T01:40:14.717Z,12.00
2018-09-24T01:42:43.315Z,12.83
2018-09-24T01:45:11.866Z,11.57
2018-09-24T01:47:40.484Z,9.97
2018-09-24T01:50:09.158Z,13.00
2018-09-24T01:52:37.734Z,10.70
2018-09-24T01:55:06.317Z,10.43
2018-09-24T01:57:34.890Z,13.33
2018-09-24T02:00:03.532Z,12.07
2018-09-24T02:02:32.130Z,14.97
2018-09-24T02:05:00.796Z,13.53
2018-09-24T02:07:29.546Z,13.90
2018-09-24T02:09:58.225Z,11.50
2018-09-24T02:12:26.814Z,12.60
2018-09-24T02:14:55.353Z,12.40
2018-09-24T02:17:24.313Z,10.80
2018-09-24T02:19:53.021Z,13.43
2018-09-24T02:22:27.425Z,11.47
2018-09-24T02:24:57.264Z,11.17
2018-09-24T02:27:26.661Z,11.63
2018-09-24T02:29:55.801Z,14.13
2018-09-24T02:32:24.385Z,12.43
2018-09-24T02:34:55.502Z,13.37
2018-09-24T02:37:24.057Z,12.50
2018-09-24T02:39:52.733Z,11.13
2018-09-24T02:42:21.288Z,16.77
2018-09-24T02:44:58.838Z,11.67
2018-09-24T02:47:32.601Z,12.63
2018-09-24T02:50:02.795Z,12.00
2018-09-24T02:52:31.375Z,13.17
2018-09-24T02:54:59.946Z,12.17
2018-09-24T02:57:29.637Z,15.33
2018-09-24T02:59:58.266Z,12.87
2018-09-24T03:02:26.832Z,11.83
2018-09-24T03:04:56.032Z,12.40
2018-09-24T03:07:24.906Z,12.37
2018-09-24T03:09:53.489Z,14.60
2018-09-24T03:12:22.341Z,15.97
2018-09-24T03:14:50.985Z,13.70
2018-09-24T03:17:20.170Z,9.97
2018-09-24T03:19:48.756Z,12.00
2018-09-24T03:22:21.526Z,11.13
2018-09-24T03:24:50.310Z,10.57
2018-09-24T03:27:18.870Z,10.60
2018-09-24T03:29:47.453Z,10.70
2018-09-24T03:32:16.023Z,9.43
2018-09-24T03:34:44.603Z,9.50
2018-09-24T03:37:13.159Z,9.20
2018-09-24T03:39:41.738Z,10.03
2018-09-24T03:42:10.307Z,10.40
2018-09-24T03:44:38.917Z,11.30
2018-09-24T03:47:07.473Z,12.73
2018-09-24T03:49:36.075Z,9.37
2018-09-24T03:52:04.665Z,9.80
2018-09-24T03:54:33.248Z,10.63
2018-09-24T03:57:01.865Z,10.47
2018-09-24T03:59:30.448Z,11.27
2018-09-24T04:01:59.153Z,10.23
2018-09-24T04:04:32.855Z,9.20
2018-09-24T04:07:06.715Z,9.87
2018-09-24T04:09:40.595Z,10.27
2018-09-24T04:12:14.316Z,10.60
2018-09-24T04:14:48.195Z,10.40
2018-09-24T04:17:22.542Z,11.77
2018-09-24T04:19:56.246Z,9.87
2018-09-24T04:22:29.923Z,8.03
2018-09-24T04:25:03.787Z,10.43
2018-09-24T04:27:38.411Z,10.00
2018-09-24T04:30:12.191Z,8.97
2018-09-24T04:32:45.807Z,9.50
2018-09-24T04:35:19.669Z,10.33
2018-09-24T04:37:55.422Z,12.37
2018-09-24T04:40:29.106Z,8.23
2018-09-24T04:43:02.757Z,9.20
2018-09-24T04:45:36.591Z,8.80
2018-09-24T04:48:11.122Z,11.60
2018-09-24T04:50:44.987Z,9.57
2018-09-24T04:53:19.135Z,10.57
2018-09-24T04:55:52.829Z,10.33
2018-09-24T04:58:27.154Z,10.70
2018-09-24T05:01:01.317Z,10.47
2018-09-24T05:03:35.100Z,8.67
2018-09-24T05:06:08.934Z,6.33
2018-09-24T05:08:43.377Z,8.60
2018-09-24T05:11:17.077Z,8.07
2018-09-24T05:13:50.749Z,10.90
2018-09-24T05:16:24.374Z,8.70
2018-09-24T05:18:59.143Z,10.47
2018-09-24T05:21:32.910Z,11.03
2018-09-24T05:24:06.637Z,10.93
2018-09-24T05:26:40.277Z,9.33
2018-09-24T05:29:14.966Z,10.47
2018-09-24T05:31:48.948Z,8.17
2018-09-24T05:34:22.779Z,10.63
2018-09-24T05:36:56.601Z,10.63
2018-09-24T05:39:38.164Z,10.47
2018-09-24T05:42:11.994Z,10.90
2018-09-24T05:44:45.658Z,9.10
2018-09-24T05:47:19.397Z,7.73
2018-09-24T05:49:54.225Z,9.37
2018-09-24T05:52:27.983Z,10.77
2018-09-24T05:55:01.893Z,13.73
2018-09-24T05:57:35.746Z,9.43
2018-09-24T06:00:10.174Z,13.13
2018-09-24T06:02:43.999Z,9.63
2018-09-24T06:05:17.716Z,7.57
2018-09-24T06:07:51.546Z,12.37
2018-09-24T06:10:26.175Z,7.17
2018-09-24T06:12:59.974Z,11.37
2018-09-24T06:15:33.772Z,10.73
2018-09-24T06:18:07.510Z,9.03
2018-09-24T06:20:42.202Z,9.73
2018-09-24T06:23:15.790Z,11.50
2018-09-24T06:25:49.375Z,6.17
2018-09-24T06:28:23.258Z,5.67
2018-09-24T06:30:57.590Z,7.10
2018-09-24T06:33:31.403Z,10.10
2018-09-24T06:36:05.069Z,6.50
2018-09-24T06:38:38.772Z,5.83
2018-09-24T06:41:13.463Z,5.33
2018-09-24T06:43:47.262Z,5.70
2018-09-24T06:46:20.828Z,4.20
2018-09-24T06:48:54.473Z,5.90
2018-09-24T06:51:29.221Z,3.63
2018-09-24T06:54:03.090Z,6.23
2018-09-24T06:56:36.995Z,7.07
2018-09-24T06:59:11.114Z,5.57
2018-09-24T07:01:46.005Z,6.80
2018-09-24T07:04:19.770Z,5.53
2018-09-24T07:06:53.585Z,6.07
2018-09-24T07:09:27.454Z,7.23
2018-09-24T07:12:01.822Z,5.80
2018-09-24T07:14:35.581Z,5.47
2018-09-24T07:17:09.427Z,5.27
2018-09-24T07:19:43.139Z,5.37
2018-09-24T07:22:17.764Z,5.50
2018-09-24T07:24:51.575Z,4.80
2018-09-24T07:27:25.316Z,5.20
2018-09-24T07:29:59.157Z,4.33
2018-09-24T07:32:33.569Z,5.47
2018-09-24T07:35:07.395Z,6.97
2018-09-24T07:37:41.016Z,6.77
2018-09-24T07:40:14.769Z,5.67
2018-09-24T07:42:49.266Z,5.40
2018-09-24T07:45:23.138Z,4.03
2018-09-24T07:47:57.021Z,6.27
2018-09-24T07:50:30.877Z,5.37
2018-09-24T07:53:05.446Z,4.73
2018-09-24T07:55:39.309Z,5.00
2018-09-24T07:58:13.112Z,6.50
2018-09-24T08:00:46.805Z,6.70
2018-09-24T08:03:21.788Z,4.87
2018-09-24T08:05:55.618Z,5.47
2018-09-24T08:08:29.317Z,4.73
2018-09-24T08:11:02.905Z,6.33
2018-09-24T08:13:37.003Z,5.33
2018-09-24T08:16:10.842Z,7.57
2018-09-24T08:18:44.653Z,5.10
2018-09-24T08:21:18.338Z,8.37
2018-09-24T08:23:52.838Z,4.10
2018-09-24T08:26:26.486Z,5.17
2018-09-24T08:29:00.330Z,4.33
2018-09-24T08:31:33.998Z,6.10
2018-09-24T08:34:08.350Z,4.20
2018-09-24T08:36:42.031Z,4.77
2018-09-24T08:39:15.741Z,6.03
2018-09-24T08:41:49.434Z,5.40
2018-09-24T08:44:24.278Z,5.23
2018-09-24T08:46:58.139Z,3.70
2018-09-24T08:49:31.858Z,5.63
2018-09-24T08:52:05.561Z,4.63
2018-09-24T08:54:39.434Z,5.83
2018-09-24T08:57:13.275Z,3.57
2018-09-24T08:59:46.928Z,5.80
2018-09-24T09:02:20.709Z,6.30
2018-09-24T09:04:55.821Z,5.13
2018-09-24T09:07:29.393Z,4.53
2018-09-24T09:10:03.227Z,5.10
2018-09-24T09:12:37.067Z,5.40
2018-09-24T09:15:11.993Z,7.03
2018-09-24T09:17:45.810Z,7.00
2018-09-24T09:20:19.441Z,6.77
2018-09-24T09:22:53.154Z,6.97
2018-09-24T09:25:27.703Z,6.33
2018-09-24T09:28:01.270Z,6.60
2018-09-24T09:30:34.905Z,5.33
2018-09-24T09:33:08.611Z,5.53
2018-09-24T09:35:43.453Z,3.93
2018-09-24T09:38:16.976Z,4.53
2018-09-24T09:40:50.717Z,3.67
2018-09-24T09:43:24.516Z,5.27
2018-09-24T09:45:59.756Z,4.90
2018-09-24T09:48:33.446Z,8.13
2018-09-24T09:51:08.191Z,3.93
2018-09-24T09:53:41.852Z,4.87
2018-09-24T09:56:16.544Z,4.23
2018-09-24T09:58:50.368Z,6.90
2018-09-24T10:01:24.007Z,5.10
2018-09-24T10:03:57.685Z,6.70
2018-09-24T10:06:32.107Z,3.13
2018-09-24T10:09:05.854Z,5.10
2018-09-24T10:11:39.490Z,4.63
2018-09-24T10:14:13.188Z,5.97
2018-09-24T10:16:48.651Z,5.53
2018-09-24T10:19:22.364Z,4.27
2018-09-24T10:21:56.223Z,4.47
2018-09-24T10:24:29.946Z,2.97
2018-09-24T10:27:04.113Z,5.60
2018-09-24T10:29:37.982Z,4.93
2018-09-24T10:32:11.723Z,6.87
2018-09-24T10:34:45.482Z,3.83
2018-09-24T10:37:19.894Z,2.20
2018-09-24T10:39:53.634Z,4.80
2018-09-24T10:42:27.565Z,4.27
2018-09-24T10:45:01.423Z,4.83
2018-09-24T10:47:36.237Z,4.47
2018-09-24T10:50:10.095Z,4.30
2018-09-24T10:52:43.896Z,4.43
2018-09-24T10:55:17.684Z,3.90
2018-09-24T10:57:52.222Z,4.60
2018-09-24T11:00:26.041Z,4.13
2018-09-24T11:02:59.663Z,4.37
2018-09-24T11:05:33.498Z,4.17
2018-09-24T11:08:11.470Z,4.50
2018-09-24T11:10:45.250Z,3.00
2018-09-24T11:13:19.029Z,3.83
2018-09-24T11:15:52.778Z,4.80
2018-09-24T11:18:26.862Z,4.63
2018-09-24T11:21:00.514Z,4.13
2018-09-24T11:23:34.297Z,2.73
2018-09-24T11:26:08.035Z,3.70
2018-09-24T11:28:42.295Z,3.77
2018-09-24T11:31:16.125Z,4.83
2018-09-24T11:33:50.002Z,3.67
2018-09-24T11:36:23.859Z,3.33
2018-09-24T11:38:58.229Z,2.53
2018-09-24T11:41:32.168Z,5.33
2018-09-24T11:44:05.958Z,3.03
2018-09-24T11:46:39.852Z,5.40
2018-09-24T11:49:14.131Z,4.93
2018-09-24T11:51:47.963Z,5.37
2018-09-24T11:54:21.806Z,3.67
2018-09-24T11:56:55.514Z,3.40
2018-09-24T11:59:30.054Z,4.63
2018-09-24T12:02:03.972Z,6.13
2018-09-24T12:04:37.741Z,4.67
2018-09-24T12:07:11.987Z,3.60
2018-09-24T12:09:46.878Z,4.17
2018-09-24T12:12:20.637Z,3.97
2018-09-24T12:14:54.491Z,4.40
2018-09-24T12:17:28.166Z,4.03
2018-09-24T12:20:02.773Z,4.33
2018-09-24T12:22:36.446Z,5.00
2018-09-24T12:25:10.366Z,2.70
2018-09-24T12:27:44.182Z,5.00
2018-09-24T12:30:18.694Z,4.33
2018-09-24T12:32:52.515Z,3.47
2018-09-24T12:35:26.326Z,2.97
2018-09-24T12:38:00.118Z,2.63
2018-09-24T12:40:35.105Z,2.47
2018-09-24T12:43:08.807Z,3.73
2018-09-24T12:45:42.647Z,2.07
2018-09-24T12:48:16.484Z,2.57
2018-09-24T12:50:51.047Z,3.07
2018-09-24T12:53:24.864Z,2.67
2018-09-24T12:55:58.583Z,2.30
2018-09-24T12:58:32.592Z,3.60
2018-09-24T13:01:06.806Z,3.83
2018-09-24T13:03:40.609Z,1.73
2018-09-24T13:06:14.450Z,2.70
2018-09-24T13:08:48.233Z,2.90
2018-09-24T13:11:22.670Z,2.30
2018-09-24T13:13:56.349Z,3.10
2018-09-24T13:16:30.086Z,1.80
2018-09-24T13:19:03.914Z,3.20
2018-09-24T13:21:38.333Z,2.17
2018-09-24T13:24:12.206Z,3.10
2018-09-24T13:26:45.967Z,2.37
2018-09-24T13:29:19.634Z,1.77
2018-09-24T13:31:54.181Z,3.23
2018-09-24T13:34:27.939Z,2.67
2018-09-24T13:37:01.754Z,4.53
2018-09-24T13:39:35.645Z,1.87
2018-09-24T13:42:09.861Z,1.70
2018-09-24T13:44:43.678Z,1.40
2018-09-24T13:47:17.399Z,2.67
2018-09-24T13:49:51.180Z,1.57
2018-09-24T13:52:25.434Z,2.00
2018-09-24T13:54:59.098Z,1.80
2018-09-24T13:57:32.830Z,3.63
2018-09-24T14:00:06.682Z,3.00
2018-09-24T14:02:41.767Z,1.80
2018-09-24T14:05:15.426Z,2.47
2018-09-24T14:07:49.258Z,2.20
2018-09-24T14:10:23.118Z,1.60
2018-09-24T14:12:58.221Z,1.47
2018-09-24T14:15:31.913Z,2.07
2018-09-24T14:18:09.659Z,3.73
2018-09-24T14:20:43.301Z,2.07
2018-09-24T14:23:17.447Z,1.70
2018-09-24T14:25:51.236Z,2.00
2018-09-24T14:28:24.893Z,3.30
2018-09-24T14:30:58.678Z,2.70
2018-09-24T14:33:33.177Z,4.47
2018-09-24T14:36:06.909Z,4.10
2018-09-24T14:38:41.090Z,4.57
2018-09-24T14:41:14.827Z,3.93
2018-09-24T14:43:49.518Z,2.70
2018-09-24T14:46:23.329Z,2.73
2018-09-24T14:48:56.894Z,2.70
2018-09-24T14:51:30.609Z,4.43
2018-09-24T14:54:04.835Z,3.70
2018-09-24T14:56:38.569Z,2.90
2018-09-24T14:59:12.241Z,17.63
2018-09-24T15:01:46.070Z,16.47
2018-09-24T15:04:20.613Z,2.13
2018-09-24T15:06:54.714Z,2.93
2018-09-24T15:09:28.493Z,1.87
2018-09-24T15:12:02.317Z,2.53
2018-09-24T15:14:36.550Z,2.23
2018-09-24T15:17:10.290Z,1.97
2018-09-24T15:19:44.361Z,3.87
2018-09-24T15:22:18.067Z,3.30
2018-09-24T15:24:52.719Z,4.83
2018-09-24T15:27:26.470Z,3.00
2018-09-24T15:30:00.303Z,2.23
2018-09-24T15:32:35.498Z,2.60
2018-09-24T15:35:10.195Z,3.30
2018-09-24T15:37:43.946Z,2.30
2018-09-24T15:40:17.809Z,3.23
2018-09-24T15:42:51.510Z,2.50
2018-09-24T15:45:25.948Z,3.37
2018-09-24T15:47:59.685Z,4.10
2018-09-24T15:50:33.522Z,4.33
2018-09-24T15:53:07.269Z,9.50
2018-09-24T15:55:41.262Z,2.77
2018-09-24T15:58:19.331Z,3.57
2018-09-24T16:00:53.158Z,3.13
2018-09-24T16:03:26.978Z,1.80
2018-09-24T16:06:01.376Z,1.97
2018-09-24T16:08:35.265Z,1.90
2018-09-24T16:11:09.159Z,3.33
2018-09-24T16:13:43.046Z,3.93
2018-09-24T16:16:17.459Z,1.43
2018-09-24T16:18:51.621Z,2.07
2018-09-24T16:21:25.281Z,2.60
2018-09-24T16:23:59.026Z,2.90
2018-09-24T16:26:34.646Z,3.10
2018-09-24T16:29:08.379Z,2.10
2018-09-24T16:31:42.251Z,2.57
2018-09-24T16:34:16.047Z,16.80
2018-09-24T16:36:50.837Z,2.47
2018-09-24T16:39:29.510Z,2.63
2018-09-24T16:42:03.302Z,3.80
2018-09-24T16:44:36.977Z,1.60
2018-09-24T16:47:11.982Z,2.07
2018-09-24T16:49:45.568Z,3.27
2018-09-24T16:52:19.246Z,3.10
2018-09-24T16:54:52.990Z,2.30
2018-09-24T16:57:27.350Z,1.97
2018-09-24T17:00:01.080Z,2.43
2018-09-24T17:02:34.802Z,2.90
2018-09-24T17:05:08.545Z,1.17
2018-09-24T17:07:43.673Z,2.33
2018-09-24T17:10:17.271Z,3.57
2018-09-24T17:12:50.993Z,3.90
2018-09-24T17:15:24.828Z,1.77
2018-09-24T17:17:58.496Z,4.33
2018-09-24T17:20:32.222Z,7.30
2018-09-24T17:23:05.904Z,6.23
2018-09-24T17:25:39.656Z,4.30
2018-09-24T17:28:13.975Z,3.20
2018-09-24T17:30:47.790Z,3.67
2018-09-24T17:33:21.472Z,25.30
2018-09-24T17:35:55.288Z,36.23
2018-09-24T17:38:29.766Z,98.23
2018-09-24T17:41:03.489Z,43.63
2018-09-24T17:43:37.161Z,55.13
2018-09-24T17:46:10.891Z,30.00
2018-09-24T17:48:45.937Z,7.03
2018-09-24T17:51:19.661Z,5.57
2018-09-24T17:53:53.489Z,6.00
2018-09-24T17:56:27.693Z,5.67
2018-09-24T17:59:02.119Z,5.00
2018-09-24T18:01:35.851Z,5.43
2018-09-24T18:04:09.547Z,3.10
2018-09-24T18:06:43.262Z,4.33
2018-09-24T18:09:18.159Z,2.93
2018-09-24T18:11:51.989Z,4.10
2018-09-24T18:14:25.739Z,5.37
2018-09-24T18:16:59.412Z,3.83
2018-09-24T18:19:33.434Z,4.27
2018-09-24T18:22:07.294Z,6.03
2018-09-24T18:24:40.971Z,5.97
2018-09-24T18:27:14.629Z,3.13
2018-09-24T18:29:49.797Z,6.40
2018-09-24T18:32:23.502Z,6.57
2018-09-24T18:34:57.242Z,4.93
2018-09-24T18:37:31.036Z,5.87
2018-09-24T18:40:05.904Z,8.23
2018-09-24T18:42:39.741Z,5.93
2018-09-24T18:45:13.473Z,7.67
2018-09-24T18:47:47.145Z,4.43
2018-09-24T18:50:21.418Z,2.63
2018-09-24T18:52:55.247Z,4.93
2018-09-24T18:55:29.091Z,5.87
2018-09-24T18:58:02.927Z,5.87
2018-09-24T19:00:37.691Z,4.90
2018-09-24T19:03:11.518Z,5.70
2018-09-24T19:05:45.153Z,3.97
2018-09-24T19:08:19.098Z,5.00
2018-09-24T19:10:53.278Z,3.53
2018-09-24T19:13:26.987Z,3.37
2018-09-24T19:16:00.678Z,4.73
2018-09-24T19:18:34.663Z,4.47
2018-09-24T19:21:09.562Z,3.67
2018-09-24T19:23:43.407Z,5.87
2018-09-24T19:26:17.168Z,5.40
2018-09-24T19:28:51.530Z,2.73
2018-09-24T19:31:25.927Z,5.67
2018-09-24T19:33:59.677Z,3.47
2018-09-24T19:36:33.461Z,3.33
2018-09-24T19:39:07.241Z,4.73
2018-09-24T19:41:42.207Z,4.13
2018-09-24T19:44:15.851Z,4.53
2018-09-24T19:46:49.611Z,2.93
2018-09-24T19:49:23.386Z,3.17
2018-09-24T19:51:59.138Z,4.37
2018-09-24T19:54:32.992Z,3.03
2018-09-24T19:57:06.662Z,2.10
2018-09-24T19:59:40.361Z,2.33
2018-09-24T20:02:15.162Z,4.27
2018-09-24T20:04:48.915Z,4.83
2018-09-24T20:07:22.742Z,3.07
2018-09-24T20:09:56.569Z,8.17
2018-09-24T20:12:30.523Z,6.90
2018-09-24T20:15:04.386Z,3.73
2018-09-24T20:17:37.925Z,4.67
2018-09-24T20:20:11.623Z,4.40
2018-09-24T20:22:45.490Z,3.10
2018-09-24T20:25:19.268Z,5.07
2018-09-24T20:27:53.046Z,4.30
2018-09-24T20:30:26.927Z,3.67
2018-09-24T20:33:01.905Z,32.83
2018-09-24T20:35:35.702Z,2.47
2018-09-24T20:38:09.399Z,4.97
2018-09-24T20:40:43.234Z,2.43
2018-09-24T20:43:17.886Z,3.37
2018-09-24T20:45:51.577Z,6.40
2018-09-24T20:48:25.219Z,2.43
2018-09-24T20:50:59.050Z,3.40
2018-09-24T20:53:33.727Z,3.43
2018-09-24T20:56:07.426Z,2.93
2018-09-24T20:58:41.239Z,2.53
2018-09-24T21:01:15.130Z,3.17
2018-09-24T21:03:49.750Z,3.20
2018-09-24T21:06:23.534Z,4.23
2018-09-24T21:08:57.269Z,3.00
2018-09-24T21:11:30.931Z,2.23
2018-09-24T21:14:05.750Z,2.03
2018-09-24T21:16:39.382Z,4.97
2018-09-24T21:19:13.253Z,4.03
2018-09-24T21:21:46.826Z,2.67
2018-09-24T21:24:20.850Z,2.30
2018-09-24T21:26:55.754Z,3.40
2018-09-24T21:29:29.645Z,2.50
2018-09-24T21:32:03.268Z,4.30
2018-09-24T21:34:37.510Z,2.50
2018-09-24T21:37:11.230Z,4.00
2018-09-24T21:39:45.019Z,3.20
2018-09-24T21:42:18.786Z,3.73
2018-09-24T21:44:52.946Z,4.13
2018-09-24T21:47:26.649Z,4.27
2018-09-24T21:50:00.495Z,4.47
2018-09-24T21:52:34.171Z,4.40
2018-09-24T21:55:09.026Z,4.30
2018-09-24T21:57:42.765Z,2.67
2018-09-24T22:00:16.633Z,3.97
2018-09-24T22:02:50.438Z,2.60
2018-09-24T22:05:24.921Z,2.97
2018-09-24T22:07:58.721Z,4.20
2018-09-24T22:10:39.394Z,3.23
2018-09-24T22:13:13.188Z,2.90
2018-09-24T22:15:47.974Z,2.87
2018-09-24T22:18:21.642Z,5.53
2018-09-24T22:20:55.349Z,1.97
2018-09-24T22:23:28.874Z,3.03
2018-09-24T22:26:03.717Z,4.50
2018-09-24T22:28:37.313Z,2.60
2018-09-24T22:31:11.127Z,2.47
2018-09-24T22:33:44.903Z,3.03
2018-09-24T22:36:19.829Z,2.43
2018-09-24T22:38:53.485Z,3.03
2018-09-24T22:41:27.170Z,2.60
2018-09-24T22:44:01.002Z,2.87
2018-09-24T22:46:35.009Z,3.30
2018-09-24T22:49:08.809Z,3.77
2018-09-24T22:51:42.547Z,4.20
2018-09-24T22:54:16.191Z,2.87
2018-09-24T22:56:51.273Z,2.30
2018-09-24T22:59:25.047Z,3.70
2018-09-24T23:02:03.832Z,2.50
2018-09-24T23:04:37.507Z,3.70
2018-09-24T23:07:12.193Z,5.93
2018-09-24T23:09:45.826Z,3.23
2018-09-24T23:12:19.515Z,2.93
2018-09-24T23:14:53.133Z,3.33
2018-09-24T23:17:27.827Z,5.10
2018-09-24T23:20:01.721Z,4.47
2018-09-24T23:22:35.411Z,2.87
2018-09-24T23:25:09.057Z,4.00
2018-09-24T23:27:43.521Z,3.17
2018-09-24T23:30:17.188Z,3.90
2018-09-24T23:32:50.906Z,5.03
2018-09-24T23:35:24.672Z,3.03
2018-09-24T23:38:00.046Z,4.10
2018-09-24T23:40:33.817Z,2.50
2018-09-24T23:43:07.473Z,4.00
2018-09-24T23:45:41.286Z,4.03
2018-09-24T23:48:16.261Z,2.70
2018-09-24T23:50:49.978Z,6.23
2018-09-24T23:53:23.847Z,2.17
2018-09-24T23:55:57.509Z,4.60
2018-09-24T23:58:32.034Z,2.43
